Accueil
METAR-TAF:

METAR-TAF

Aéroports :

Middleton Island, Alaska, États-Unis

latitude: 59-26N, longitude: 146-18W, altitude: 27 m

Observation

Le bulletin a été fait il y a 26 minutes, à 22:51 UTC
Vent 3 kt de ouest/sud-ouest
Température 2°C
Humidité 47%
Pression 1000 hPa
Visibilité: 16.1 km
Ciel clair

METAR: PAMD 222251Z AUTO 25003KT 10SM CLR 02/M08 A2954 RMK AO2 SLP992 T00171078 FZRANO

Heure: 14:17 (23:17 UTC)


TAF: absent

Observations et prévisions météorologiques de plus de 4000 aéroports (messages METAR et TAF).

Les stations disponibles sont représentées par des disques jaunes et rouges sur la carte.

Passer la souris dessus pour voir le nom de la station.

Cliquer dessus pour voir les observations et prévisions météorologiques.

Pour changer de carte: cliquez sur les boutons verts avec une croix noire pour zoomer, sur le bouton vert avec un tiret pour effectuer un zoom arrière, ou sur les flèches vertes pour les cartes adjacentes.


METAR-TAF: